Time;durP1;ratioP1;P1;durP2;ratioP2;P2;SDS_P1;SDS_P2;PMS_P1;PMS_P2;Temp;Humidity;BMP_temperature;BMP_pressure;BME280_temperature;BME280_humidity;BME280_pressure;Samples;Min_cycle;Max_cycle;Signal;HPM_P1;HPM_P2
2022/04/28 04:02:17;;;;;;;6.97;5.17;;;;;;;;;;5129633;23;20572;-76
2022/04/28 04:04:43;;;;;;;6.23;5.00;;;1.60;96.30;;;;;;4958461;28;20828;-73
2022/04/28 04:07:09;;;;;;;6.47;5.10;;;;;;;;;;4975963;28;20626;-73
2022/04/28 04:09:35;;;;;;;6.43;5.47;;;;;;;;;;4975392;28;20210;-73
2022/04/28 04:12:00;;;;;;;5.63;4.93;;;1.70;96.30;;;;;;4975835;28;20940;-73
2022/04/28 04:14:27;;;;;;;6.30;5.20;;;1.70;96.30;;;;;;4975690;28;20440;-73
2022/04/28 04:16:52;;;;;;;5.37;4.73;;;1.70;96.30;;;;;;4976222;28;20171;-73
2022/04/28 04:19:18;;;;;;;8.20;5.20;;;;;;;;;;4979119;28;20496;-73
2022/04/28 04:21:44;;;;;;;7.97;5.47;;;;;;;;;;4980407;28;20206;-73
2022/04/28 04:24:10;;;;;;;7.40;5.07;;;;;;;;;;4975835;28;20480;-73
2022/04/28 04:26:36;;;;;;;7.50;5.70;;;;;;;;;;4976073;28;20421;-73
2022/04/28 04:29:02;;;;;;;10.43;5.47;;;2.10;96.30;;;;;;4981072;28;20185;-73
2022/04/28 04:36:56;;;;;;;6.53;5.07;;;2.70;96.30;;;;;;5613380;23;20491;-73
2022/04/28 04:39:21;;;;;;;6.47;5.23;;;3.00;96.30;;;;;;4982452;28;20953;-73
2022/04/28 04:44:23;;;;;;;8.97;5.43;;;;;;;;;;4996748;23;20739;-74
2022/04/28 04:46:49;;;;;;;8.20;4.90;;;3.90;96.30;;;;;;4998854;28;20417;-74
2022/04/28 04:49:14;;;;;;;5.67;5.00;;;3.90;96.30;;;;;;4995899;28;20182;-73
2022/04/28 05:22:39;;;;;;;5.60;4.40;;;;;;;;;;4953682;29;20982;-73
2022/04/28 05:25:05;;;;;;;7.07;5.20;;;4.70;96.30;;;;;;4953569;28;20426;-73
2022/04/28 05:27:31;;;;;;;6.70;4.40;;;4.70;96.30;;;;;;4954562;29;20409;-76
2022/04/28 05:29:56;;;;;;;6.20;4.70;;;5.00;96.30;;;;;;4955146;29;20410;-78
2022/04/28 05:32:22;;;;;;;6.10;4.17;;;5.70;96.30;;;;;;4954789;28;20210;-73
2022/04/28 05:34:47;;;;;;;8.77;4.20;;;6.00;96.30;;;;;;4937776;29;20246;-73
2022/04/28 05:37:14;;;;;;;7.60;4.37;;;6.50;96.30;;;;;;4954739;29;20551;-73
2022/04/28 05:39:41;;;;;;;7.17;4.33;;;7.80;96.30;;;;;;4954455;29;20203;-73
2022/04/28 05:42:07;;;;;;;5.17;4.40;;;8.90;96.30;;;;;;4954869;29;20485;-73
2022/04/28 05:47:18;;;;;;;4.60;3.90;;;8.70;96.30;;;;;;4955076;29;20433;-73
2022/04/28 05:49:44;;;;;;;7.10;4.17;;;8.70;96.30;;;;;;4954324;29;20442;-73
2022/04/28 05:52:09;;;;;;;5.27;4.07;;;9.20;96.30;;;;;;4954627;29;20701;-73
2022/04/28 05:54:36;;;;;;;6.70;4.60;;;;;;;;;;4954667;29;20229;-73
2022/04/28 05:57:02;;;;;;;4.17;3.40;;;9.30;96.30;;;;;;4954749;29;20173;-73
2022/04/28 05:59:28;;;;;;;3.90;3.33;;;9.00;96.30;;;;;;4953910;29;20969;-73
2022/04/28 06:01:54;;;;;;;4.83;3.87;;;;;;;;;;4937371;29;20445;-76
2022/04/28 06:04:19;;;;;;;5.87;3.93;;;10.40;96.30;;;;;;4954818;29;20554;-73
2022/04/28 06:06:45;;;;;;;7.70;4.40;;;10.90;96.30;;;;;;4954609;29;20178;-73
2022/04/28 06:09:10;;;;;;;5.20;4.67;;;10.50;96.30;;;;;;4937059;29;20673;-73
2022/04/28 06:11:36;;;;;;;4.93;4.30;;;11.40;96.30;;;;;;4954364;29;20191;-74
2022/04/28 06:14:01;;;;;;;4.90;3.53;;;12.40;96.30;;;;;;4954479;29;20182;-73
2022/04/28 06:16:27;;;;;;;3.90;3.47;;;11.80;96.30;;;;;;4954190;29;20179;-77
2022/04/28 06:18:53;;;;;;;4.33;3.57;;;;;;;;;;4953047;29;20663;-76
2022/04/28 06:21:18;;;;;;;4.93;3.43;;;13.70;96.30;;;;;;4953560;29;20211;-76
2022/04/28 06:23:45;;;;;;;5.10;3.80;;;14.00;94.70;;;;;;4954331;29;20191;-77
2022/04/28 06:26:11;;;;;;;4.93;3.90;;;;;;;;;;4936987;29;20208;-75
2022/04/28 06:28:36;;;;;;;5.10;3.70;;;;;;;;;;4953506;29;20407;-76
2022/04/28 06:31:02;;;;;;;3.57;3.27;;;14.10;95.90;;;;;;4954051;29;20194;-76
2022/04/28 06:33:28;;;;;;;8.40;3.50;;;15.00;92.20;;;;;;4954173;29;20187;-76
2022/04/28 06:35:55;;;;;;;4.40;3.43;;;14.90;91.70;;;;;;4954118;29;20183;-77
2022/04/28 06:38:21;;;;;;;5.63;3.40;;;;;;;;;;4953425;29;20171;-76
2022/04/28 06:40:46;;;;;;;4.60;3.80;;;13.10;96.00;;;;;;4953912;29;21046;-76
2022/04/28 06:43:12;;;;;;;4.13;3.77;;;12.70;96.30;;;;;;4953951;29;20175;-77
2022/04/28 06:46:11;;;;;;;5.40;3.67;;;13.40;96.30;;;;;;4953390;28;20179;-77
2022/04/28 06:48:23;;;;;;;4.67;3.73;;;14.00;96.30;;;;;;4953246;29;20981;-76
2022/04/28 06:50:49;;;;;;;4.50;3.70;;;14.40;96.20;;;;;;4953859;29;20443;-77
2022/04/28 06:53:14;;;;;;;5.00;3.70;;;15.40;92.10;;;;;;4953971;29;20804;-76
2022/04/28 06:55:40;;;;;;;6.50;3.67;;;16.50;90.20;;;;;;4953843;29;20187;-76
2022/04/28 06:58:06;;;;;;;4.70;4.17;;;;;;;;;;4953291;29;20214;-75
2022/04/28 07:00:31;;;;;;;4.87;3.80;;;;;;;;;;4953723;29;20210;-76
2022/04/28 07:02:57;;;;;;;5.23;4.10;;;15.60;92.20;;;;;;4953812;29;20171;-76
2022/04/28 07:05:22;;;;;;;6.80;3.93;;;15.90;94.30;;;;;;4953820;29;20178;-74
2022/04/28 07:07:49;;;;;;;4.90;4.30;;;17.10;90.00;;;;;;4953219;29;20181;-75
2022/04/28 07:10:14;;;;;;;8.40;5.00;;;17.10;89.00;;;;;;4953643;29;20179;-75
2022/04/28 07:12:41;;;;;;;5.93;4.40;;;17.20;90.30;;;;;;4953739;29;20466;-75
2022/04/28 07:15:06;;;;;;;5.03;4.10;;;17.80;88.10;;;;;;4936513;29;20183;-75
2022/04/28 07:17:32;;;;;;;6.20;4.47;;;17.50;90.40;;;;;;4953053;29;20446;-77
2022/04/28 07:19:58;;;;;;;5.17;4.57;;;;;;;;;;4953617;29;20190;-75
2022/04/28 07:22:23;;;;;;;9.20;5.23;;;19.90;83.70;;;;;;4953524;29;20211;-75
2022/04/28 07:24:49;;;;;;;11.00;4.00;;;19.60;80.80;;;;;;4953688;29;20258;-75
2022/04/28 07:27:15;;;;;;;9.73;4.47;;;;;;;;;;4953466;29;20643;-76
2022/04/28 07:29:41;;;;;;;5.70;5.10;;;19.20;81.70;;;;;;4953062;29;20171;-75
2022/04/28 07:32:07;;;;;;;6.10;5.50;;;19.70;85.20;;;;;;4953693;29;20307;-75
2022/04/28 07:34:32;;;;;;;7.50;6.83;;;19.70;86.40;;;;;;4953417;29;20194;-77
2022/04/28 07:36:58;;;;;;;6.80;5.67;;;20.10;84.20;;;;;;4953558;29;20478;-75
2022/04/28 07:39:23;;;;;;;7.43;6.67;;;21.60;81.70;;;;;;4935577;29;20206;-75
2022/04/28 07:41:49;;;;;;;8.93;7.17;;;;;;;;;;4953453;29;20194;-75
2022/04/28 07:44:15;;;;;;;8.10;6.20;;;22.90;78.90;;;;;;4953555;29;20174;-77
2022/04/28 07:46:40;;;;;;;7.73;6.97;;;23.80;72.00;;;;;;4953796;29;20174;-75
2022/04/28 07:49:06;;;;;;;9.20;6.83;;;23.90;75.00;;;;;;4952785;29;20174;-76
2022/04/28 07:51:31;;;;;;;7.17;6.07;;;23.90;70.40;;;;;;4953477;29;20218;-76
2022/04/28 07:53:57;;;;;;;7.97;6.50;;;23.70;72.80;;;;;;4953359;29;20537;-76
2022/04/28 07:56:22;;;;;;;12.23;7.27;;;24.00;70.10;;;;;;4955011;28;20175;-76
2022/04/28 07:58:48;;;;;;;7.83;7.03;;;24.10;70.20;;;;;;4956262;29;20712;-76
2022/04/28 08:01:14;;;;;;;9.60;5.73;;;24.70;70.70;;;;;;4956674;29;20210;-76
2022/04/28 08:03:40;;;;;;;11.87;5.83;;;24.90;69.80;;;;;;4956668;29;20181;-76
2022/04/28 08:06:07;;;;;;;6.10;5.50;;;24.50;68.40;;;;;;4956720;29;20258;-76
2022/04/28 08:08:36;;;;;;;6.50;5.27;;;24.20;71.60;;;;;;4956100;29;20437;-75
2022/04/28 08:11:03;;;;;;;6.27;5.30;;;24.10;67.40;;;;;;4956522;29;20969;-77
2022/04/28 08:13:29;;;;;;;6.00;4.93;;;23.20;67.50;;;;;;4956561;29;20505;-75
2022/04/28 08:15:54;;;;;;;6.27;5.20;;;23.10;70.90;;;;;;4956528;29;20417;-75
2022/04/28 08:18:21;;;;;;;9.40;5.50;;;23.20;71.10;;;;;;4955855;29;20413;-77
2022/04/28 08:20:46;;;;;;;7.00;5.80;;;23.20;71.20;;;;;;4956184;29;20214;-77
2022/04/28 08:23:12;;;;;;;9.13;5.50;;;23.80;70.10;;;;;;4956364;29;20758;-75
2022/04/28 08:25:38;;;;;;;13.40;4.80;;;24.60;69.90;;;;;;4956318;29;20166;-75
2022/04/28 08:28:03;;;;;;;6.23;5.63;;;23.90;71.90;;;;;;4955756;29;20183;-75
2022/04/28 08:30:30;;;;;;;11.40;6.07;;;23.30;70.40;;;;;;4956126;29;20414;-75
2022/04/28 08:32:55;;;;;;;6.40;5.80;;;22.30;67.90;;;;;;4956245;29;20174;-73
2022/04/28 08:35:21;;;;;;;7.67;6.10;;;21.90;75.60;;;;;;4956144;29;20502;-73
2022/04/28 08:37:46;;;;;;;9.47;7.20;;;21.80;74.50;;;;;;4955518;29;20269;-73
2022/04/28 08:40:12;;;;;;;5.70;5.20;;;21.40;72.50;;;;;;4956065;29;20209;-74
2022/04/28 08:42:38;;;;;;;7.23;6.30;;;20.40;73.00;;;;;;4956057;29;20238;-74
2022/04/28 08:45:04;;;;;;;6.60;5.87;;;19.20;76.40;;;;;;4955976;29;20262;-73
2022/04/28 08:47:31;;;;;;;7.43;5.93;;;18.60;81.90;;;;;;4955355;29;20166;-73
2022/04/28 08:49:57;;;;;;;6.43;5.83;;;;;;;;;;4955818;29;20929;-74
2022/04/28 08:52:24;;;;;;;8.87;6.70;;;19.90;78.40;;;;;;4955701;29;20442;-73
2022/04/28 08:54:55;;;;;;;12.73;6.27;;;18.70;76.40;;;;;;4955805;29;20179;-73
2022/04/28 08:57:22;;;;;;;9.73;6.10;;;18.90;80.70;;;;;;4955834;29;20443;-73
2022/04/28 08:59:50;;;;;;;7.27;6.57;;;19.50;82.20;;;;;;4954755;29;20492;-74
2022/04/28 09:02:22;;;;;;;7.70;6.90;;;19.20;84.20;;;;;;4955537;29;20809;-75
2022/04/28 09:04:48;;;;;;;8.27;6.60;;;17.90;85.70;;;;;;4955622;29;20411;-74
2022/04/28 09:07:13;;;;;;;10.50;6.53;;;16.90;86.00;;;;;;4955077;28;20448;-73
2022/04/28 09:09:39;;;;;;;8.33;6.70;;;16.20;91.40;;;;;;4954903;29;20214;-73
2022/04/28 09:12:05;;;;;;;8.00;7.30;;;15.40;90.80;;;;;;4955375;29;20222;-73
2022/04/28 09:14:31;;;;;;;7.30;6.60;;;14.80;91.80;;;;;;4955468;29;20667;-73
2022/04/28 09:17:03;;;;;;;12.23;6.03;;;14.80;96.00;;;;;;4955388;29;20668;-74
2022/04/28 09:19:34;;;;;;;9.53;7.77;;;15.50;96.30;;;;;;4954590;29;20509;-74
2022/04/28 09:22:05;;;;;;;8.13;7.33;;;16.00;89.70;;;;;;4935865;29;20490;-74
2022/04/28 09:24:31;;;;;;;11.77;7.63;;;15.60;93.70;;;;;;4936291;29;20418;-75
2022/04/28 09:26:57;;;;;;;12.20;8.40;;;15.30;93.00;;;;;;4935991;29;20791;-73
2022/04/28 09:29:26;;;;;;;8.80;7.13;;;15.00;96.30;;;;;;4935420;29;20498;-75
2022/04/28 09:31:53;;;;;;;9.07;8.10;;;15.10;96.30;;;;;;4935777;29;20199;-73
2022/04/28 09:34:20;;;;;;;13.70;7.93;;;16.80;95.10;;;;;;4936044;29;20955;-75
2022/04/28 09:36:47;;;;;;;10.87;8.10;;;18.30;92.30;;;;;;4918845;29;20412;-73
2022/04/28 09:44:56;;;;;;;13.33;8.00;;;15.60;91.90;;;;;;4935735;29;20413;-74
2022/04/28 09:47:22;;;;;;;11.70;8.47;;;16.60;96.30;;;;;;4935628;29;20447;-74
2022/04/28 09:49:52;;;;;;;17.10;8.00;;;17.20;87.20;;;;;;4935093;29;20462;-74
2022/04/28 09:52:19;;;;;;;10.00;8.83;;;18.20;86.90;;;;;;4935531;29;20439;-74
2022/04/28 09:54:46;;;;;;;11.83;8.10;;;18.50;85.40;;;;;;4935503;29;20412;-74
2022/04/28 09:57:12;;;;;;;10.80;8.37;;;18.20;89.20;;;;;;4935438;29;20423;-74
2022/04/28 09:59:38;;;;;;;11.27;9.13;;;17.80;87.40;;;;;;4934845;29;21031;-74
2022/04/28 10:02:04;;;;;;;13.93;9.43;;;17.10;89.30;;;;;;4918297;29;20310;-75
2022/04/28 10:04:31;;;;;;;11.47;9.13;;;15.60;90.10;;;;;;4935418;29;20273;-74
2022/04/28 10:06:58;;;;;;;10.70;9.50;;;14.50;90.40;;;;;;4935594;29;20771;-74
2022/04/28 10:09:24;;;;;;;11.67;9.03;;;;;;;;;;4934686;29;20427;-75
2022/04/28 10:11:51;;;;;;;13.23;10.07;;;13.90;96.30;;;;;;4935139;29;20963;-73
2022/04/28 10:14:21;;;;;;;15.33;10.27;;;14.00;96.30;;;;;;4935198;29;20644;-74
2022/04/28 10:16:49;;;;;;;12.00;10.50;;;15.20;96.30;;;;;;4938042;29;20415;-73
2022/04/28 10:19:34;;;;;;;12.43;10.37;;;17.00;93.20;;;;;;4942593;29;20555;-73
2022/04/28 10:33:04;;;;;;;11.13;10.00;;;;;;;;;;4916429;29;20391;-72
2022/04/28 10:35:37;;;;;;;16.17;10.87;;;15.60;91.80;;;;;;4916102;29;20451;-72
2022/04/28 10:38:10;;;;;;;11.07;9.73;;;15.50;88.60;;;;;;4915517;29;20806;-74
2022/04/28 10:40:37;;;;;;;12.90;9.40;;;;;;;;;;4915780;29;20471;-75
2022/04/28 10:43:03;;;;;;;12.07;10.53;;;;;;;;;;4914595;29;20519;-76
2022/04/28 10:45:38;;;;;;;16.40;10.03;;;;;;;;;;4915872;29;20896;-75
2022/04/28 10:48:29;;;;;;;13.83;10.77;;;;;;;;;;4915295;29;20175;-74
2022/04/28 10:50:59;;;;;;;14.23;10.50;;;;;;;;;;4915869;29;21120;-74
2022/04/28 10:53:25;;;;;;;12.87;10.47;;;;;;;;;;4915787;29;20408;-75
2022/04/28 10:55:52;;;;;;;10.83;9.17;;;;;;;;;;4915807;29;20412;-74
2022/04/28 10:58:24;;;;;;;9.07;7.73;;;17.60;86.20;;;;;;4915173;29;20203;-75
2022/04/28 11:00:54;;;;;;;10.00;9.00;;;16.80;84.80;;;;;;4915661;29;20952;-74
2022/04/28 11:03:43;;;;;;;9.73;8.70;;;16.10;91.60;;;;;;4915766;29;20773;-74
2022/04/28 11:06:17;;;;;;;14.30;9.80;;;16.00;88.80;;;;;;4915786;29;21021;-74
2022/04/28 11:08:46;;;;;;;9.80;8.40;;;16.40;88.60;;;;;;4915124;29;20419;-74
2022/04/28 11:11:13;;;;;;;13.73;10.50;;;16.00;89.70;;;;;;4915606;29;20472;-75
2022/04/28 11:13:43;;;;;;;10.37;8.93;;;15.70;91.60;;;;;;4915626;29;20826;-74
2022/04/28 11:16:10;;;;;;;10.60;9.20;;;15.50;91.00;;;;;;4915581;29;20972;-74
2022/04/28 11:18:36;;;;;;;9.57;8.17;;;;;;;;;;4915015;29;20427;-74
2022/04/28 11:21:03;;;;;;;11.03;8.70;;;18.00;96.30;;;;;;4915495;29;20460;-74
2022/04/28 11:23:36;;;;;;;10.13;8.90;;;;;;;;;;4915580;29;20419;-75
2022/04/28 11:26:03;;;;;;;8.80;8.00;;;18.50;91.70;;;;;;4915485;29;20916;-76
2022/04/28 11:28:30;;;;;;;9.77;8.40;;;18.60;86.30;;;;;;4914862;29;20491;-76
2022/04/28 11:30:57;;;;;;;10.07;8.33;;;;;;;;;;4916391;29;20448;-76
2022/04/28 11:33:23;;;;;;;10.60;8.50;;;16.90;86.30;;;;;;4919153;29;20419;-75
2022/04/28 11:35:49;;;;;;;9.33;7.70;;;15.90;87.40;;;;;;4919116;29;20428;-75
2022/04/28 11:38:23;;;;;;;10.73;9.27;;;15.70;91.90;;;;;;4918516;29;20180;-74
2022/04/28 11:41:09;;;;;;;9.90;8.90;;;;;;;;;;4901950;29;20835;-75
2022/04/28 11:43:36;;;;;;;9.77;8.33;;;17.60;88.70;;;;;;4918721;29;20520;-75
2022/04/28 11:46:02;;;;;;;10.43;8.50;;;18.60;94.20;;;;;;4918880;29;20471;-75
2022/04/28 11:48:29;;;;;;;13.07;10.30;;;;;;;;;;4918294;29;20440;-75
2022/04/28 11:51:04;;;;;;;10.17;9.17;;;19.40;86.90;;;;;;4918901;29;20428;-76
2022/04/28 11:53:46;;;;;;;14.57;9.40;;;;;;;;;;4918771;29;20915;-75
2022/04/28 11:56:18;;;;;;;9.90;8.90;;;19.50;84.40;;;;;;4918778;29;20416;-75
2022/04/28 11:58:49;;;;;;;9.70;8.17;;;19.20;88.10;;;;;;4918091;29;20988;-74
2022/04/28 12:01:16;;;;;;;12.17;8.13;;;19.50;81.60;;;;;;4918562;29;20555;-75
2022/04/28 12:03:49;;;;;;;8.60;7.30;;;18.80;79.10;;;;;;4918613;29;20976;-74
2022/04/28 12:06:17;;;;;;;14.77;8.00;;;18.50;82.50;;;;;;4918488;29;20416;-77
2022/04/28 12:08:57;;;;;;;10.80;8.73;;;17.20;82.80;;;;;;4917895;29;20512;-77
2022/04/28 12:14:25;;;;;;;13.30;7.80;;;16.50;87.80;;;;;;4918861;29;20472;-75
2022/04/28 12:20:10;;;;;;;11.50;8.57;;;17.20;89.70;;;;;;4917474;29;20611;-74
2022/04/28 12:22:40;;;;;;;7.60;6.90;;;18.10;85.90;;;;;;4916242;29;20448;-75
2022/04/28 12:25:07;;;;;;;14.40;7.40;;;18.70;83.90;;;;;;4901165;29;20435;-75
2022/04/28 12:27:55;;;;;;;10.17;8.07;;;17.90;81.60;;;;;;4900356;29;20440;-75
2022/04/28 12:30:20;;;;;;;10.83;7.67;;;18.10;88.50;;;;;;4918137;29;20420;-75
2022/04/28 12:32:56;;;;;;;10.67;8.37;;;18.20;90.60;;;;;;4901126;29;20451;-76
2022/04/28 12:35:26;;;;;;;11.50;8.10;;;18.60;86.40;;;;;;4918018;29;20176;-76
2022/04/28 12:38:06;;;;;;;10.27;9.00;;;18.20;84.90;;;;;;4917395;29;20424;-75
2022/04/28 12:40:50;;;;;;;10.13;8.30;;;17.30;86.10;;;;;;4900946;29;20836;-76
2022/04/28 12:43:36;;;;;;;14.53;8.40;;;17.70;87.40;;;;;;4916872;29;20644;-77
2022/04/28 12:46:03;;;;;;;10.40;8.83;;;17.90;84.90;;;;;;4917982;29;20416;-77
2022/04/28 12:48:35;;;;;;;10.37;7.70;;;18.00;83.60;;;;;;4917254;29;20417;-76
2022/04/28 12:51:11;;;;;;;8.93;7.90;;;;;;;;;;4917777;29;20525;-77
2022/04/28 12:53:39;;;;;;;10.60;7.80;;;17.70;86.90;;;;;;4917639;29;20412;-77
2022/04/28 12:56:10;;;;;;;8.07;6.70;;;18.00;87.50;;;;;;4917480;29;20519;-76
2022/04/28 12:58:53;;;;;;;8.43;7.00;;;18.40;87.90;;;;;;4917181;29;20447;-74
2022/04/28 13:01:19;;;;;;;7.30;6.50;;;17.90;84.40;;;;;;4917417;29;20487;-75
2022/04/28 13:04:05;;;;;;;8.90;6.70;;;18.30;82.70;;;;;;4917573;29;20444;-76
2022/04/28 13:06:32;;;;;;;11.53;6.50;;;;;;;;;;4917444;29;20183;-76
2022/04/28 13:09:00;;;;;;;8.80;6.70;;;18.80;84.00;;;;;;4916856;29;20416;-76
2022/04/28 13:11:28;;;;;;;6.87;5.93;;;19.10;78.40;;;;;;4917417;29;20443;-76
2022/04/28 13:13:54;;;;;;;7.50;5.60;;;;;;;;;;4900410;29;20532;-76
2022/04/28 13:16:20;;;;;;;7.67;5.90;;;18.70;79.70;;;;;;4917341;29;20448;-76
2022/04/28 13:18:46;;;;;;;8.40;5.70;;;;;;;;;;4916756;29;20416;-76
2022/04/28 13:21:12;;;;;;;10.57;6.37;;;;;;;;;;4917062;29;20475;-76
2022/04/28 13:23:42;;;;;;;9.60;6.00;;;19.60;81.60;;;;;;4916106;29;20549;-76
2022/04/28 13:26:09;;;;;;;10.07;6.00;;;19.50;78.10;;;;;;4917002;29;20428;-76
2022/04/28 13:28:35;;;;;;;11.13;5.90;;;19.40;79.80;;;;;;4916570;29;20856;-76
2022/04/28 13:31:01;;;;;;;5.63;5.00;;;19.70;81.70;;;;;;4916894;29;20925;-76
2022/04/28 13:33:27;;;;;;;6.37;5.37;;;;;;;;;;4917110;29;20429;-74
2022/04/28 13:35:53;;;;;;;6.17;4.77;;;19.80;77.60;;;;;;4917870;29;20196;-75
2022/04/28 13:38:19;;;;;;;7.23;6.50;;;;;;;;;;4918315;29;20184;-76
2022/04/28 13:40:44;;;;;;;8.80;6.43;;;19.90;76.20;;;;;;4918544;29;20219;-77
2022/04/28 13:43:10;;;;;;;6.70;5.73;;;18.50;77.40;;;;;;4917630;29;20177;-76
2022/04/28 13:45:35;;;;;;;8.97;5.77;;;17.60;83.70;;;;;;4916755;29;20645;-76
2022/04/28 13:48:01;;;;;;;8.47;5.10;;;18.20;85.20;;;;;;4899290;29;20180;-75
2022/04/28 13:50:27;;;;;;;8.03;6.77;;;;;;;;;;4916700;29;20236;-76
2022/04/28 13:52:53;;;;;;;11.57;7.30;;;;;;;;;;4916788;29;20259;-76
2022/04/28 13:55:19;;;;;;;6.80;6.10;;;;;;;;;;4916480;29;20637;-76
2022/04/28 13:57:45;;;;;;;7.17;6.10;;;18.40;77.90;;;;;;4916047;29;21146;-76
2022/04/28 14:00:13;;;;;;;9.00;4.90;;;18.70;77.80;;;;;;4916429;29;20456;-76
2022/04/28 14:02:40;;;;;;;6.57;5.93;;;18.90;77.00;;;;;;4916630;29;20424;-75
2022/04/28 14:05:06;;;;;;;8.70;6.43;;;;;;;;;;4899532;29;20420;-76
2022/04/28 14:07:33;;;;;;;8.20;6.50;;;;;;;;;;4915869;29;20409;-76
2022/04/28 14:09:58;;;;;;;6.87;6.17;;;18.30;79.40;;;;;;4916490;29;20825;-76
2022/04/28 14:12:25;;;;;;;11.20;6.80;;;18.60;80.80;;;;;;4916394;29;20530;-75
2022/04/28 14:14:51;;;;;;;12.70;6.80;;;;;;;;;;4916451;29;20316;-76
2022/04/28 14:17:16;;;;;;;9.50;7.20;;;17.20;79.60;;;;;;4916176;29;20453;-77
2022/04/28 14:19:42;;;;;;;9.83;5.43;;;16.90;82.50;;;;;;4915585;29;20207;-75
2022/04/28 14:22:08;;;;;;;7.50;6.00;;;17.00;82.40;;;;;;4899227;29;20207;-77
2022/04/28 14:24:33;;;;;;;8.60;6.30;;;;;;;;;;4916251;29;20649;-77
2022/04/28 14:26:59;;;;;;;8.23;5.80;;;;;;;;;;4916331;29;20204;-76
2022/04/28 14:29:26;;;;;;;10.00;6.50;;;;;;;;;;4914390;29;20508;-75
2022/04/28 14:31:52;;;;;;;6.57;5.57;;;;;;;;;;4914753;29;20200;-76
2022/04/28 14:34:21;;;;;;;8.43;6.10;;;18.20;77.90;;;;;;4916199;29;20416;-76
2022/04/28 14:36:48;;;;;;;6.03;5.03;;;;;;;;;;4899234;29;20429;-77
2022/04/28 14:39:13;;;;;;;9.07;6.33;;;18.20;77.10;;;;;;4915320;29;20416;-76
2022/04/28 14:41:40;;;;;;;5.20;4.70;;;17.80;74.60;;;;;;4915945;29;20928;-75
2022/04/28 14:44:05;;;;;;;7.90;5.83;;;17.60;78.30;;;;;;4898966;29;20204;-76
2022/04/28 14:46:31;;;;;;;9.60;7.43;;;;;;;;;;4916025;29;20428;-76
2022/04/28 14:54:25;;;;;;;7.73;6.20;;;18.10;80.40;;;;;;4916272;29;20468;-75
2022/04/28 14:56:51;;;;;;;9.97;7.57;;;;;;;;;;4915890;29;20835;-76
2022/04/28 14:59:17;;;;;;;7.97;7.10;;;17.80;79.70;;;;;;4915163;29;20200;-76
2022/04/28 15:01:42;;;;;;;9.63;7.17;;;18.20;84.20;;;;;;4915802;29;20668;-76
2022/04/28 15:04:08;;;;;;;16.70;7.07;;;18.30;79.10;;;;;;4916104;29;20180;-75
2022/04/28 15:06:33;;;;;;;7.50;6.80;;;18.10;78.60;;;;;;4918445;29;20173;-76
2022/04/28 15:08:58;;;;;;;9.10;7.30;;;18.00;79.40;;;;;;4901937;29;20541;-76
2022/04/28 15:11:24;;;;;;;7.90;6.53;;;18.30;78.80;;;;;;4919557;29;20192;-76
2022/04/28 15:13:50;;;;;;;9.40;7.23;;;;;;;;;;4919636;29;20180;-76
2022/04/28 15:16:16;;;;;;;13.50;7.87;;;;;;;;;;4918270;29;20172;-77
2022/04/28 15:18:44;;;;;;;9.53;7.67;;;;;;;;;;4918941;29;20423;-75
2022/04/28 15:21:10;;;;;;;9.33;8.30;;;17.00;83.70;;;;;;4916578;29;20295;-76
2022/04/28 15:23:35;;;;;;;11.23;8.53;;;16.40;84.80;;;;;;4900498;29;20494;-77
2022/04/28 15:26:01;;;;;;;15.30;8.80;;;15.70;87.30;;;;;;4900475;29;20417;-77
2022/04/28 15:28:27;;;;;;;8.80;7.90;;;;;;;;;;4899917;29;20185;-75
2022/04/28 15:30:53;;;;;;;10.03;9.03;;;;;;;;;;4901952;29;20591;-74
2022/04/28 15:33:19;;;;;;;8.37;7.57;;;;;;;;;;4883650;29;20244;-77
2022/04/28 15:35:45;;;;;;;9.20;7.30;;;;;;;;;;4900368;29;20189;-76
2022/04/28 15:38:11;;;;;;;11.20;7.47;;;16.80;84.70;;;;;;4900318;29;20210;-77
2022/04/28 15:40:37;;;;;;;8.83;7.13;;;;;;;;;;4898821;29;20216;-76
2022/04/28 15:43:04;;;;;;;9.90;7.20;;;16.80;81.50;;;;;;4900198;29;20417;-76
2022/04/28 15:45:30;;;;;;;10.30;8.13;;;16.50;83.20;;;;;;4900123;29;20187;-77
2022/04/28 15:47:55;;;;;;;9.07;7.70;;;16.50;86.20;;;;;;4900038;29;20500;-75
2022/04/28 15:50:21;;;;;;;8.17;7.33;;;;;;;;;;4900150;29;20634;-76
2022/04/28 15:52:48;;;;;;;14.90;8.23;;;17.00;82.50;;;;;;4917703;29;20239;-77
2022/04/28 15:55:14;;;;;;;8.40;6.90;;;17.10;86.60;;;;;;4918841;29;20420;-74
2022/04/28 15:57:40;;;;;;;17.37;8.23;;;;;;;;;;4918552;29;20474;-75
2022/04/28 16:00:07;;;;;;;8.67;7.83;;;16.60;85.40;;;;;;4918707;29;20495;-77
2022/04/28 16:02:33;;;;;;;11.00;7.40;;;;;;;;;;4918704;29;20219;-76
2022/04/28 16:04:58;;;;;;;7.70;6.60;;;16.60;86.70;;;;;;4918570;29;20460;-76
2022/04/28 16:07:26;;;;;;;7.53;6.57;;;;;;;;;;4918512;29;20452;-75
2022/04/28 16:09:52;;;;;;;9.30;7.37;;;16.60;87.20;;;;;;4901478;29;20211;-74
2022/04/28 16:12:17;;;;;;;12.73;7.80;;;16.50;88.30;;;;;;4918453;29;20448;-75
2022/04/28 16:14:43;;;;;;;9.73;7.93;;;16.30;85.20;;;;;;4918499;29;20184;-76
2022/04/28 16:17:08;;;;;;;8.33;7.20;;;16.10;83.90;;;;;;4901418;29;20185;-75
2022/04/28 16:19:34;;;;;;;8.37;7.30;;;;;;;;;;4918170;29;20279;-77
2022/04/28 16:22:01;;;;;;;8.63;7.67;;;15.80;88.10;;;;;;4918232;29;20210;-77
2022/04/28 16:24:26;;;;;;;12.20;7.07;;;15.70;86.00;;;;;;4918255;29;20408;-76
2022/04/28 16:26:52;;;;;;;11.40;7.30;;;;;;;;;;4923965;29;20511;-75
2022/04/28 16:29:18;;;;;;;10.53;7.27;;;15.60;85.90;;;;;;4921268;29;20235;-77
2022/04/28 16:31:44;;;;;;;8.57;6.80;;;15.40;85.40;;;;;;4893126;29;20535;-78
2022/04/28 16:34:10;;;;;;;10.23;6.40;;;15.30;86.00;;;;;;4901801;29;20504;-74
2022/04/28 16:36:35;;;;;;;7.73;6.80;;;15.20;85.20;;;;;;4882777;29;20185;-73
2022/04/28 16:39:01;;;;;;;7.57;6.87;;;;;;;;;;4882307;29;20236;-78
2022/04/28 16:41:27;;;;;;;7.83;6.80;;;;;;;;;;4899165;29;20779;-74
2022/04/28 16:43:55;;;;;;;10.43;7.50;;;15.10;88.30;;;;;;4910849;29;20437;-72
2022/04/28 16:46:20;;;;;;;8.73;7.23;;;15.00;86.00;;;;;;4917983;29;20179;-73
2022/04/28 16:48:46;;;;;;;10.30;6.57;;;15.00;87.70;;;;;;4900848;29;20414;-74
2022/04/28 16:51:12;;;;;;;9.50;7.13;;;15.10;87.80;;;;;;4913539;29;20247;-76
2022/04/28 16:53:37;;;;;;;11.93;8.10;;;15.00;88.70;;;;;;4918616;29;20180;-76
2022/04/28 16:56:04;;;;;;;10.40;6.70;;;;;;;;;;4918724;29;20231;-77
2022/04/28 16:58:30;;;;;;;7.77;7.03;;;;;;;;;;4915144;29;20185;-77
2022/04/28 17:00:56;;;;;;;9.57;6.90;;;;;;;;;;4917338;29;20527;-77
2022/04/28 17:06:05;;;;;;;12.93;7.80;;;14.20;89.90;;;;;;4917850;29;20179;-78
2022/04/28 17:08:31;;;;;;;11.30;6.27;;;14.20;91.00;;;;;;4918022;29;20515;-77
2022/04/28 17:10:57;;;;;;;7.97;6.53;;;;;;;;;;4917957;29;20204;-77
2022/04/28 17:13:24;;;;;;;7.83;6.97;;;14.10;89.90;;;;;;4917534;29;20541;-77
2022/04/28 17:15:49;;;;;;;12.10;7.37;;;14.10;89.90;;;;;;4917660;29;20507;-76
2022/04/28 17:18:15;;;;;;;7.67;6.60;;;13.90;89.80;;;;;;4917319;29;20851;-77
2022/04/28 17:20:41;;;;;;;7.30;5.80;;;13.70;91.40;;;;;;4916382;29;20768;-76
2022/04/28 17:23:06;;;;;;;7.77;6.10;;;13.60;90.50;;;;;;4916588;29;20594;-77
2022/04/28 17:25:33;;;;;;;5.90;5.40;;;13.60;91.00;;;;;;4917636;29;20190;-76
2022/04/28 17:28:00;;;;;;;5.73;4.83;;;13.50;91.60;;;;;;4898062;29;20199;-77
2022/04/28 17:30:26;;;;;;;8.93;6.50;;;;;;;;;;4917696;29;20416;-76
2022/04/28 17:32:52;;;;;;;7.43;6.20;;;13.10;91.90;;;;;;4900768;29;20480;-76
2022/04/28 17:35:18;;;;;;;7.03;6.27;;;12.90;92.80;;;;;;4892682;29;20425;-73
2022/04/28 17:37:44;;;;;;;6.30;5.30;;;12.80;93.70;;;;;;4906487;29;20181;-74
2022/04/28 17:40:10;;;;;;;9.60;5.90;;;12.80;95.00;;;;;;4916772;29;20825;-74
2022/04/28 17:42:36;;;;;;;5.93;5.23;;;12.80;95.40;;;;;;4916035;29;20196;-76
2022/04/28 17:45:03;;;;;;;5.80;5.30;;;12.70;94.00;;;;;;4915936;29;20423;-74
2022/04/28 17:47:28;;;;;;;7.10;5.90;;;12.50;96.30;;;;;;4916590;29;20920;-74
2022/04/28 17:49:54;;;;;;;5.97;5.37;;;12.40;96.30;;;;;;4897818;29;20424;-74
2022/04/28 17:52:19;;;;;;;8.03;5.50;;;12.10;96.30;;;;;;4897819;29;20201;-74
2022/04/28 17:59:52;;;;;;;7.50;6.00;;;;;;;;;;4897928;29;20176;-73
2022/04/28 18:00:16;;;;;;;5.67;5.07;;;11.10;96.30;;;;;;4898692;29;20889;-78
2022/04/28 18:02:42;;;;;;;6.00;5.40;;;;;;;;;;4897721;29;20458;-73
2022/04/28 18:05:08;;;;;;;5.77;5.27;;;;;;;;;;4910703;29;20554;-73
2022/04/28 18:07:35;;;;;;;6.77;6.00;;;;;;;;;;4916262;29;20420;-73
2022/04/28 18:10:00;;;;;;;6.10;5.50;;;10.40;96.30;;;;;;4916531;29;20417;-75
2022/04/28 18:12:26;;;;;;;7.90;6.23;;;;;;;;;;4914909;29;20435;-73
2022/04/28 18:14:53;;;;;;;7.30;6.63;;;10.10;96.30;;;;;;4916404;29;20176;-72
2022/04/28 18:17:19;;;;;;;10.37;6.00;;;10.10;96.30;;;;;;4916343;29;20176;-73
2022/04/28 18:19:45;;;;;;;8.30;5.70;;;9.90;96.30;;;;;;4899003;29;20460;-73
2022/04/28 18:22:11;;;;;;;6.07;5.50;;;;;;;;;;4908666;29;20237;-72
2022/04/28 18:24:36;;;;;;;9.70;6.17;;;9.50;96.30;;;;;;4908144;29;20291;-77
2022/04/28 18:27:02;;;;;;;6.83;6.13;;;;;;;;;;4913976;29;21138;-73